< Typhoon 197203 1972 Season Typhoon 197205 >
Typhoon 197204 (NINA)
General InformationTrack Information on Google Maps || Disaster Info.ResourceGoogle EarthGE AnimationAtom FeedGeoJSON
Detalied Best Track (Time Zone = UTC)
Year Month Day Hour Lat. Long. Pressure (hPa) Wind (kt) Class Image Chart
1972 6 1 00 9.2 141.0 1004 0 2 -- Chart
1972 6 1 06 9.1 141.5 1002 0 2 -- Chart
1972 6 1 12 9.0 142.0 1004 0 2 -- Chart
1972 6 1 18 9.0 142.5 1004 0 2 -- Chart
1972 6 2 00 8.9 143.2 1004 0 2 -- Chart
1972 6 2 06 8.9 144.0 1002 0 2 -- Chart
1972 6 2 12 8.9 144.9 1002 0 2 -- Chart
1972 6 2 18 9.0 146.1 1000 0 2 -- Chart
1972 6 3 00 9.1 147.3 1000 0 2 -- Chart
1972 6 3 06 9.3 148.5 1000 0 2 -- Chart
1972 6 3 12 9.4 149.8 998 0 2 -- Chart
1972 6 3 18 9.6 151.3 998 0 2 -- Chart
1972 6 4 00 9.9 152.8 996 0 9 -- Chart
1972 6 4 06 10.4 154.0 996 0 9 -- Chart
1972 6 4 12 11.2 155.0 1000 0 2 -- Chart
1972 6 4 18 12.0 156.0 1002 0 2 -- Chart
1972 6 5 00 13.0 157.0 1004 0 2 -- Chart
1972 6 5 06 14.2 157.8 1004 0 2 -- Chart
1972 6 5 12 15.5 158.5 1004 0 2 -- Chart
1972 6 5 18 17.0 159.0 1004 0 2 -- Chart
1972 6 6 00 18.7 159.6 1004 0 2 -- Chart
1972 6 6 06 20.3 160.2 1004 0 2 -- Chart
1972 6 6 12 22.0 160.7 1008 0 2 -- Chart
1972 6 6 18 23.6 161.2 1008 0 2 -- Chart
1972 6 7 00 25.3 161.7 1008 0 2 -- Chart
Japan Meteorological Agency Best Track Data | Correction Date : 1989-06-01
< Typhoon 197203 1972 Season Typhoon 197205 >

Help